Time,TemperatureF,DewpointF,PressureIn,WindDirection,WindDirectionDegrees,WindSpeedMPH,WindSpeedGustMPH,Humidity,HourlyPrecipIn,Conditions,Clouds,dailyrainin,SoftwareType,DateUTC
2013-06-08 00:01:00,66.3,60.6,29.87,West,260,1.0,1.2,82,0.00,RA,,0.00,WeatherDisplay:10.37,2013-06-08 04:01:00,
2013-06-08 00:02:00,66.2,60.2,29.87,West,260,0.8,2.3,81,0.00,RA,,0.00,WeatherDisplay:10.37,2013-06-08 04:02:00,
2013-06-08 00:07:00,66.0,60.0,29.87,WSW,256,1.0,0.0,81,0.00,RA,,0.00,WeatherDisplay:10.37,2013-06-08 04:07:00,
2013-06-08 00:12:00,65.9,59.9,29.88,WSW,243,1.0,0.0,81,0.00,RA,,0.00,WeatherDisplay:10.37,2013-06-08 04:12:00,
2013-06-08 00:17:00,65.9,59.9,29.88,WSW,243,1.0,0.0,81,0.00,RA,,0.00,WeatherDisplay:10.37,2013-06-08 04:17:00,
2013-06-08 00:22:00,65.7,60.1,29.88,WSW,248,0.0,0.0,82,0.00,RA,,0.00,WeatherDisplay:10.37,2013-06-08 04:22:00,
2013-06-08 00:27:00,65.4,59.8,29.88,South,190,0.0,1.2,82,0.00,RA,,0.00,WeatherDisplay:10.37,2013-06-08 04:27:00,
2013-06-08 00:32:00,65.4,59.8,29.87,WSW,249,0.0,0.0,82,0.00,CLR,,0.00,WeatherDisplay:10.37,2013-06-08 04:32:00,
2013-06-08 00:37:00,65.3,60.3,29.87,WSW,249,0.0,0.0,84,0.00,CLR,,0.00,WeatherDisplay:10.37,2013-06-08 04:37:00,
2013-06-08 00:42:00,65.0,60.0,29.87,WSW,249,0.0,0.0,84,0.00,CLR,,0.00,WeatherDisplay:10.37,2013-06-08 04:42:00,
2013-06-08 00:47:00,64.8,60.5,29.87,WSW,248,0.0,0.0,86,0.00,CLR,,0.00,WeatherDisplay:10.37,2013-06-08 04:47:00,
2013-06-08 00:52:00,64.6,59.3,29.87,SW,224,1.5,3.5,83,0.00,CLR,,0.00,WeatherDisplay:10.37,2013-06-08 04:52:00,
2013-06-08 00:57:00,64.8,59.5,29.87,WSW,238,2.2,3.5,83,0.00,CLR,,0.00,WeatherDisplay:10.37,2013-06-08 04:57:00,
2013-06-08 01:02:00,65.0,59.4,29.87,SSW,208,0.0,0.0,82,0.00,CLR,,0.00,WeatherDisplay:10.37,2013-06-08 05:02:00,
2013-06-08 01:07:00,65.0,59.4,29.86,SSW,203,0.2,1.2,82,0.00,CLR,,0.00,WeatherDisplay:10.37,2013-06-08 05:07:00,
2013-06-08 01:12:00,65.0,59.7,29.87,West,270,0.0,0.0,83,0.00,CLR,,0.00,WeatherDisplay:10.37,2013-06-08 05:12:00,
2013-06-08 01:17:00,65.0,60.0,29.86,SE,125,0.0,0.0,84,0.00,CLR,,0.00,WeatherDisplay:10.37,2013-06-08 05:17:00,
2013-06-08 01:22:00,64.5,59.9,29.86,SE,126,0.0,0.0,85,0.00,CLR,,0.00,WeatherDisplay:10.37,2013-06-08 05:22:00,
2013-06-08 01:27:00,64.1,60.2,29.87,SE,125,0.0,0.0,87,0.00,CLR,,0.00,WeatherDisplay:10.37,2013-06-08 05:27:00,
2013-06-08 01:32:00,63.8,59.9,29.87,SE,126,0.0,0.0,87,0.00,CLR,,0.00,WeatherDisplay:10.37,2013-06-08 05:32:00,
2013-06-08 01:37:00,63.6,59.7,29.87,SSW,204,0.0,0.0,87,0.00,CLR,,0.00,WeatherDisplay:10.37,2013-06-08 05:37:00,
2013-06-08 01:42:00,63.6,59.7,29.87,WSW,249,0.1,1.0,87,0.00,CLR,,0.00,WeatherDisplay:10.37,2013-06-08 05:42:00,
2013-06-08 01:47:00,63.8,59.2,29.87,WSW,250,1.2,4.6,85,0.00,CLR,,0.00,WeatherDisplay:10.37,2013-06-08 05:47:00,
2013-06-08 01:52:00,64.0,59.1,29.87,WSW,237,2.0,3.5,84,0.00,CLR,,0.00,WeatherDisplay:10.37,2013-06-08 05:52:00,
2013-06-08 01:57:00,63.9,59.3,29.88,WSW,238,0.5,2.3,85,0.00,CLR,,0.00,WeatherDisplay:10.37,2013-06-08 05:57:00,
2013-06-08 02:02:00,63.7,59.1,29.87,SW,224,0.1,1.2,85,0.00,CLR,,0.00,WeatherDisplay:10.37,2013-06-08 06:02:00,
2013-06-08 02:07:00,63.6,59.3,29.88,SW,224,0.1,1.2,86,0.00,CLR,,0.00,WeatherDisplay:10.37,2013-06-08 06:07:00,
2013-06-08 02:12:00,63.4,59.1,29.88,SW,232,0.7,3.5,86,0.00,CLR,,0.00,WeatherDisplay:10.37,2013-06-08 06:12:00,
2013-06-08 02:17:00,63.5,58.9,29.87,SSW,207,0.8,2.3,85,0.00,CLR,,0.00,WeatherDisplay:10.37,2013-06-08 06:17:00,
2013-06-08 02:22:00,63.6,59.0,29.88,SSW,197,1.3,3.5,85,0.00,CLR,,0.00,WeatherDisplay:10.37,2013-06-08 06:22:00,
2013-06-08 02:27:00,63.5,58.9,29.87,SW,235,0.2,1.2,85,0.00,CLR,,0.00,WeatherDisplay:10.37,2013-06-08 06:27:00,
2013-06-08 02:32:00,63.4,58.8,29.87,SW,221,0.3,1.2,85,0.00,CLR,,0.00,WeatherDisplay:10.37,2013-06-08 06:32:00,
2013-06-08 02:37:00,63.3,58.7,29.88,West,265,2.9,3.5,85,0.00,CLR,,0.00,WeatherDisplay:10.37,2013-06-08 06:37:00,
2013-06-08 02:42:00,63.4,58.8,29.88,West,259,1.2,3.5,85,0.00,CLR,,0.00,WeatherDisplay:10.37,2013-06-08 06:42:00,
2013-06-08 02:47:00,63.5,58.6,29.88,SW,228,1.7,3.5,84,0.00,CLR,,0.00,WeatherDisplay:10.37,2013-06-08 06:47:00,
2013-06-08 02:52:00,63.6,58.3,29.88,SSW,209,1.1,2.3,83,0.00,CLR,,0.00,WeatherDisplay:10.37,2013-06-08 06:52:00,
2013-06-08 02:57:00,63.6,58.3,29.88,South,190,1.4,2.3,83,0.00,CLR,,0.00,WeatherDisplay:10.37,2013-06-08 06:57:00,
2013-06-08 03:02:00,63.6,58.3,29.88,WSW,250,0.5,2.3,83,0.00,CLR,,0.00,WeatherDisplay:10.37,2013-06-08 07:02:00,
2013-06-08 03:07:00,63.7,58.8,29.88,NE,51,0.3,1.2,84,0.00,CLR,,0.00,WeatherDisplay:10.37,2013-06-08 07:07:00,
2013-06-08 03:12:00,63.3,59.0,29.88,NE,53,0.0,0.0,86,0.00,CLR,,0.00,WeatherDisplay:10.37,2013-06-08 07:12:00,
2013-06-08 03:17:00,62.9,59.3,29.89,NE,51,0.0,1.2,88,0.00,CLR,,0.00,WeatherDisplay:10.37,2013-06-08 07:17:00,
2013-06-08 03:22:00,62.5,59.2,29.88,NE,53,0.0,0.0,89,0.00,CLR,,0.00,WeatherDisplay:10.37,2013-06-08 07:22:00,
2013-06-08 03:27:00,62.2,58.3,29.89,West,259,0.8,2.3,87,0.00,CLR,,0.00,WeatherDisplay:10.37,2013-06-08 07:27:00,
2013-06-08 03:32:00,62.4,58.2,29.89,SW,219,0.5,1.2,86,0.00,CLR,,0.00,WeatherDisplay:10.37,2013-06-08 07:32:00,
2013-06-08 03:37:00,62.8,57.9,29.89,West,277,1.8,3.5,84,0.00,CLR,,0.00,WeatherDisplay:10.37,2013-06-08 07:37:00,
2013-06-08 03:42:00,63.1,58.5,29.88,WSW,254,0.0,0.0,85,0.00,CLR,,0.00,WeatherDisplay:10.37,2013-06-08 07:42:00,
2013-06-08 03:47:00,63.0,58.1,29.88,SSW,207,0.2,2.3,84,0.00,CLR,,0.00,WeatherDisplay:10.37,2013-06-08 07:47:00,
2013-06-08 03:52:00,63.0,58.4,29.89,West,259,0.3,1.2,85,0.00,CLR,,0.00,WeatherDisplay:10.37,2013-06-08 07:52:00,
2013-06-08 03:57:00,63.0,58.1,29.89,WSW,244,0.5,1.2,84,0.00,CLR,,0.00,WeatherDisplay:10.37,2013-06-08 07:57:00,
2013-06-08 04:02:00,62.8,58.2,29.89,WSW,257,0.7,1.2,85,0.00,CLR,,0.00,WeatherDisplay:10.37,2013-06-08 08:02:00,
2013-06-08 04:07:00,62.9,58.0,29.89,NE,54,0.4,1.2,84,0.00,CLR,,0.00,WeatherDisplay:10.37,2013-06-08 08:07:00,
2013-06-08 04:12:00,63.1,58.8,29.89,West,271,0.0,0.0,86,0.00,CLR,,0.00,WeatherDisplay:10.37,2013-06-08 08:12:00,
2013-06-08 04:17:00,62.9,59.6,29.89,West,271,0.0,0.0,89,0.00,CLR,,0.00,WeatherDisplay:10.37,2013-06-08 08:17:00,
2013-06-08 04:22:00,62.4,59.7,29.89,WSW,250,0.0,0.0,91,0.00,CLR,,0.00,WeatherDisplay:10.37,2013-06-08 08:22:00,
2013-06-08 04:27:00,61.9,59.2,29.89,WSW,244,0.0,1.2,91,0.00,CLR,,0.00,WeatherDisplay:10.37,2013-06-08 08:27:00,
2013-06-08 04:32:00,61.6,59.3,29.90,WSW,243,0.0,0.0,92,0.00,CLR,,0.00,WeatherDisplay:10.37,2013-06-08 08:32:00,
2013-06-08 04:37:00,61.9,58.3,29.90,West,259,0.3,1.2,88,0.00,CLR,,0.00,WeatherDisplay:10.37,2013-06-08 08:37:00,
2013-06-08 04:42:00,62.4,58.5,29.90,WSW,250,0.0,0.0,87,0.00,CLR,,0.00,WeatherDisplay:10.37,2013-06-08 08:42:00,
2013-06-08 04:47:00,62.6,59.3,29.90,SW,236,0.0,0.0,89,0.00,CLR,,0.00,WeatherDisplay:10.37,2013-06-08 08:47:00,
2013-06-08 04:52:00,62.4,59.1,29.90,SW,235,0.0,1.2,89,0.00,CLR,,0.00,WeatherDisplay:10.37,2013-06-08 08:52:00,
2013-06-08 04:57:00,62.1,59.1,29.90,SW,235,0.0,0.0,90,0.00,CLR,,0.00,WeatherDisplay:10.37,2013-06-08 08:57:00,
2013-06-08 05:02:00,62.2,59.8,29.90,SW,235,0.0,0.0,92,0.00,OVC,,0.00,WeatherDisplay:10.37,2013-06-08 09:02:00,
2013-06-08 05:07:00,61.9,59.5,29.90,SW,235,0.0,1.2,92,0.00,OVC,,0.00,WeatherDisplay:10.37,2013-06-08 09:07:00,
2013-06-08 05:12:00,61.6,59.3,29.90,SW,235,0.0,0.0,92,0.00,OVC,,0.00,WeatherDisplay:10.37,2013-06-08 09:12:00,
2013-06-08 05:17:00,61.5,59.5,29.90,SW,235,0.0,0.0,93,0.00,OVC,,0.00,WeatherDisplay:10.37,2013-06-08 09:17:00,
2013-06-08 05:22:00,61.3,59.3,29.90,SW,235,0.0,0.0,93,0.00,OVC,,0.00,WeatherDisplay:10.37,2013-06-08 09:22:00,
2013-06-08 05:27:00,61.2,59.2,29.90,SW,236,0.0,0.0,93,0.00,OVC,,0.00,WeatherDisplay:10.37,2013-06-08 09:27:00,
2013-06-08 05:32:00,61.1,59.4,29.91,SW,235,0.0,0.0,94,0.00,OVC,,0.00,WeatherDisplay:10.37,2013-06-08 09:32:00,
2013-06-08 05:37:00,61.1,59.1,29.91,SW,235,0.0,0.0,93,0.00,OVC,,0.00,WeatherDisplay:10.37,2013-06-08 09:37:00,
2013-06-08 05:42:00,61.0,59.0,29.91,SW,235,0.0,0.0,93,0.00,OVC,,0.00,WeatherDisplay:10.37,2013-06-08 09:42:00,
2013-06-08 05:47:00,61.0,59.3,29.91,SW,235,0.0,0.0,94,0.00,OVC,,0.00,WeatherDisplay:10.37,2013-06-08 09:47:00,
2013-06-08 05:52:00,60.9,59.2,29.91,SW,235,0.0,0.0,94,0.00,OVC,,0.00,WeatherDisplay:10.37,2013-06-08 09:52:00,
2013-06-08 05:57:00,60.9,59.2,29.92,SW,235,0.0,0.0,94,0.00,OVC,,0.00,WeatherDisplay:10.37,2013-06-08 09:57:00,
2013-06-08 06:02:00,60.9,59.5,29.92,SW,235,0.0,0.0,95,0.00,OVC,,0.00,WeatherDisplay:10.37,2013-06-08 10:02:00,
2013-06-08 06:07:00,60.9,59.5,29.92,SW,235,0.0,0.0,95,0.00,OVC,,0.00,WeatherDisplay:10.37,2013-06-08 10:07:00,
2013-06-08 06:12:00,60.8,59.4,29.93,SW,235,0.0,0.0,95,0.00,OVC,,0.00,WeatherDisplay:10.37,2013-06-08 10:12:00,
2013-06-08 06:17:00,60.7,59.3,29.93,SW,235,0.0,0.0,95,0.00,OVC,,0.00,WeatherDisplay:10.37,2013-06-08 10:17:00,
2013-06-08 06:22:00,60.7,59.3,29.93,SW,235,0.0,0.0,95,0.00,OVC,,0.00,WeatherDisplay:10.37,2013-06-08 10:22:00,
2013-06-08 06:27:00,60.8,59.4,29.93,WSW,238,0.0,0.0,95,0.00,OVC,,0.00,WeatherDisplay:10.37,2013-06-08 10:27:00,
2013-06-08 06:32:00,60.9,59.5,29.95,WSW,242,0.0,0.0,95,0.00,OVC,,0.00,WeatherDisplay:10.37,2013-06-08 10:32:00,
2013-06-08 06:37:00,60.9,59.5,29.95,WSW,242,0.1,1.2,95,0.00,OVC,,0.00,WeatherDisplay:10.37,2013-06-08 10:37:00,
2013-06-08 06:42:00,60.9,59.8,29.95,WSW,242,0.0,0.0,96,0.00,OVC,,0.00,WeatherDisplay:10.37,2013-06-08 10:42:00,
2013-06-08 06:47:00,61.0,59.9,29.95,WSW,242,0.0,0.0,96,0.00,OVC,,0.00,WeatherDisplay:10.37,2013-06-08 10:47:00,
2013-06-08 06:52:00,61.1,60.0,29.95,WSW,242,0.0,0.0,96,0.00,OVC,,0.00,WeatherDisplay:10.37,2013-06-08 10:52:00,
2013-06-08 06:57:00,61.2,60.1,29.95,WSW,242,0.0,0.0,96,0.00,OVC,,0.00,WeatherDisplay:10.37,2013-06-08 10:57:00,
2013-06-08 07:02:00,61.2,60.1,29.95,WSW,242,0.0,0.0,96,0.00,OVC,,0.00,WeatherDisplay:10.37,2013-06-08 11:02:00,
2013-06-08 07:07:00,61.1,60.0,29.96,NW,307,0.0,0.0,96,0.00,OVC,,0.00,WeatherDisplay:10.37,2013-06-08 11:07:00,
2013-06-08 07:12:00,61.1,60.0,29.97,SW,217,0.1,1.2,96,0.00,OVC,,0.00,WeatherDisplay:10.37,2013-06-08 11:12:00,
2013-06-08 07:17:00,61.1,60.0,29.97,WSW,245,0.0,0.0,96,0.00,OVC,,0.00,WeatherDisplay:10.37,2013-06-08 11:17:00,
2013-06-08 07:22:00,61.2,60.1,29.98,WSW,245,0.0,0.0,96,0.00,OVC,,0.00,WeatherDisplay:10.37,2013-06-08 11:22:00,
2013-06-08 07:27:00,61.3,59.9,29.97,SE,135,0.0,1.2,95,0.01,RA,,0.01,WeatherDisplay:10.37,2013-06-08 11:27:00,
2013-06-08 07:32:00,61.4,60.0,29.97,SE,135,0.0,0.0,95,0.02,RA,,0.02,WeatherDisplay:10.37,2013-06-08 11:32:00,
2013-06-08 07:37:00,61.5,60.1,29.98,SW,219,0.0,0.0,95,0.04,RA,,0.04,WeatherDisplay:10.37,2013-06-08 11:37:00,
2013-06-08 07:42:00,61.4,60.0,29.98,SW,219,0.0,0.0,95,0.05,RA,,0.05,WeatherDisplay:10.37,2013-06-08 11:42:00,
2013-06-08 07:47:00,61.3,59.9,29.98,SW,219,0.2,1.2,95,0.07,RA,,0.07,WeatherDisplay:10.37,2013-06-08 11:47:00,
2013-06-08 07:52:00,60.9,59.5,29.99,SE,133,0.0,0.0,95,0.08,RA,,0.08,WeatherDisplay:10.37,2013-06-08 11:52:00,
2013-06-08 07:57:00,60.5,59.1,29.98,SE,127,0.0,0.0,95,0.09,RA,,0.09,WeatherDisplay:10.37,2013-06-08 11:57:00,
2013-06-08 08:02:00,60.4,59.3,29.97,SE,127,0.0,0.0,96,0.10,-RA,,0.10,WeatherDisplay:10.37,2013-06-08 12:02:00,
2013-06-08 08:07:00,60.1,59.0,29.96,SE,127,0.0,0.0,96,0.12,-RA,,0.12,WeatherDisplay:10.37,2013-06-08 12:07:00,
2013-06-08 08:12:00,60.1,59.2,29.96,SE,128,0.0,0.0,97,0.13,-RA,,0.13,WeatherDisplay:10.37,2013-06-08 12:12:00,
2013-06-08 08:17:00,60.3,59.7,29.96,WSW,248,0.0,0.0,98,0.13,-RA,,0.13,WeatherDisplay:10.37,2013-06-08 12:17:00,
2013-06-08 08:22:00,60.6,60.0,29.96,WSW,248,0.0,1.0,98,0.13,-RA,,0.13,WeatherDisplay:10.37,2013-06-08 12:22:00,
2013-06-08 08:27:00,60.5,59.6,29.97,WSW,256,0.0,0.0,97,0.12,-RA,,0.13,WeatherDisplay:10.37,2013-06-08 12:27:00,
2013-06-08 08:32:00,60.5,59.6,29.98,SW,221,1.6,2.3,97,0.11,-RA,,0.13,WeatherDisplay:10.37,2013-06-08 12:32:00,
2013-06-08 08:37:00,60.2,59.3,29.99,SW,221,2.9,3.5,97,0.09,-RA,,0.13,WeatherDisplay:10.37,2013-06-08 12:37:00,
2013-06-08 08:42:00,60.2,59.3,29.99,West,262,0.9,3.5,97,0.08,-RA,,0.13,WeatherDisplay:10.37,2013-06-08 12:42:00,
2013-06-08 08:47:00,60.4,59.5,29.99,SW,221,0.8,2.3,97,0.06,-RA,,0.13,WeatherDisplay:10.37,2013-06-08 12:47:00,
2013-06-08 08:52:00,60.4,59.3,29.99,SW,232,2.4,3.5,96,0.05,-RA,,0.13,WeatherDisplay:10.37,2013-06-08 12:52:00,
2013-06-08 08:57:00,60.5,59.1,29.99,WSW,244,0.0,0.0,95,0.04,-RA,,0.13,WeatherDisplay:10.37,2013-06-08 12:57:00,
2013-06-08 09:02:00,60.7,59.3,29.99,WSW,253,0.0,0.0,95,0.03,BKN,,0.13,WeatherDisplay:10.37,2013-06-08 13:02:00,
2013-06-08 09:07:00,60.8,59.4,29.99,West,262,0.0,0.0,95,0.01,BKN,,0.13,WeatherDisplay:10.37,2013-06-08 13:07:00,
2013-06-08 09:12:00,60.8,59.4,29.99,West,262,0.0,0.0,95,0.00,BKN,,0.13,WeatherDisplay:10.37,2013-06-08 13:12:00,
2013-06-08 09:17:00,60.9,59.5,29.99,West,262,0.0,0.0,95,0.00,BKN,,0.13,WeatherDisplay:10.37,2013-06-08 13:17:00,
2013-06-08 09:22:00,60.8,59.4,29.99,West,262,0.1,1.2,95,0.00,BKN,,0.13,WeatherDisplay:10.37,2013-06-08 13:22:00,
2013-06-08 09:27:00,60.7,59.6,29.99,West,262,0.0,0.0,96,0.00,BKN,,0.13,WeatherDisplay:10.37,2013-06-08 13:27:00,
2013-06-08 09:32:00,60.8,59.7,29.99,SSW,200,0.0,0.0,96,0.00,BKN,,0.13,WeatherDisplay:10.37,2013-06-08 13:32:00,
2013-06-08 09:37:00,61.0,59.3,30.00,East,91,0.0,0.0,94,0.00,BKN,,0.13,WeatherDisplay:10.37,2013-06-08 13:37:00,
2013-06-08 09:42:00,61.6,59.6,30.00,SW,231,0.4,2.3,93,0.00,BKN,,0.13,WeatherDisplay:10.37,2013-06-08 13:42:00,
2013-06-08 09:47:00,62.4,59.7,30.00,SW,233,0.0,0.0,91,0.00,BKN,,0.13,WeatherDisplay:10.37,2013-06-08 13:47:00,
2013-06-08 09:52:00,63.1,60.7,30.00,South,176,0.0,0.0,92,0.00,BKN,,0.13,WeatherDisplay:10.37,2013-06-08 13:52:00,
2013-06-08 09:57:00,63.7,61.0,30.00,South,176,0.0,0.0,91,0.00,BKN,,0.13,WeatherDisplay:10.37,2013-06-08 13:57:00,
2013-06-08 10:02:00,64.1,61.4,30.00,South,176,0.0,0.0,91,0.00,BKN,,0.13,WeatherDisplay:10.37,2013-06-08 14:02:00,
2013-06-08 10:07:00,64.5,60.9,30.00,South,176,0.0,0.0,88,0.00,SCT,,0.13,WeatherDisplay:10.37,2013-06-08 14:07:00,
2013-06-08 10:12:00,64.8,60.2,30.01,WSW,256,0.0,0.0,85,0.00,SCT,,0.13,WeatherDisplay:10.37,2013-06-08 14:12:00,
2013-06-08 10:17:00,65.4,60.4,30.01,SSW,208,0.0,0.0,84,0.00,SCT,,0.13,WeatherDisplay:10.37,2013-06-08 14:17:00,
2013-06-08 10:22:00,65.8,60.8,30.01,SE,126,0.1,1.2,84,0.00,SCT,,0.13,WeatherDisplay:10.37,2013-06-08 14:22:00,
2013-06-08 10:27:00,66.2,61.9,30.01,SE,127,0.0,0.0,86,0.00,SCT,,0.13,WeatherDisplay:10.37,2013-06-08 14:27:00,
2013-06-08 10:32:00,66.5,62.2,30.01,SW,224,0.3,1.2,86,0.00,SCT,,0.13,WeatherDisplay:10.37,2013-06-08 14:32:00,
2013-06-08 10:37:00,66.6,61.9,30.01,WSW,239,0.0,0.0,85,0.00,SCT,,0.13,WeatherDisplay:10.37,2013-06-08 14:37:00,
2013-06-08 10:42:00,66.8,61.1,30.01,WSW,247,0.5,1.2,82,0.00,SCT,,0.13,WeatherDisplay:10.37,2013-06-08 14:42:00,
2013-06-08 10:47:00,67.3,62.3,30.01,West,281,0.0,1.2,84,0.00,SCT,,0.13,WeatherDisplay:10.37,2013-06-08 14:47:00,
2013-06-08 10:52:00,67.5,62.5,30.01,West,262,0.0,0.0,84,0.00,SCT,,0.13,WeatherDisplay:10.37,2013-06-08 14:52:00,
2013-06-08 10:57:00,67.9,61.9,30.01,ESE,118,0.2,1.2,81,0.00,SCT,,0.13,WeatherDisplay:10.37,2013-06-08 14:57:00,
2013-06-08 11:02:00,68.3,62.9,30.01,ESE,118,0.0,0.0,83,0.00,FEW,,0.13,WeatherDisplay:10.37,2013-06-08 15:02:00,
2013-06-08 11:07:00,69.1,63.0,30.01,WSW,255,0.0,0.0,81,0.00,FEW,,0.13,WeatherDisplay:10.37,2013-06-08 15:07:00,
2013-06-08 11:12:00,70.0,62.8,30.02,South,179,0.0,0.0,78,0.00,FEW,,0.13,WeatherDisplay:10.37,2013-06-08 15:12:00,
2013-06-08 11:17:00,70.4,63.6,30.02,South,179,0.1,1.2,79,0.00,FEW,,0.13,WeatherDisplay:10.37,2013-06-08 15:17:00,
2013-06-08 11:22:00,71.0,63.4,30.02,South,179,0.0,0.0,77,0.00,FEW,,0.13,WeatherDisplay:10.37,2013-06-08 15:22:00,
2013-06-08 11:27:00,72.2,64.2,30.02,South,191,0.0,0.0,76,0.00,FEW,,0.13,WeatherDisplay:10.37,2013-06-08 15:27:00,
2013-06-08 11:32:00,72.4,62.9,30.02,SW,231,0.5,2.3,72,0.00,FEW,,0.13,WeatherDisplay:10.37,2013-06-08 15:32:00,
2013-06-08 11:37:00,72.8,63.2,30.02,SE,138,0.0,0.0,72,0.00,FEW,,0.13,WeatherDisplay:10.37,2013-06-08 15:37:00,
2013-06-08 11:42:00,73.1,65.5,30.02,SE,138,0.0,0.0,77,0.00,FEW,,0.13,WeatherDisplay:10.37,2013-06-08 15:42:00,
2013-06-08 11:47:00,74.3,64.7,30.02,SE,139,0.0,0.0,72,0.00,FEW,,0.13,WeatherDisplay:10.37,2013-06-08 15:47:00,
2013-06-08 11:52:00,75.3,65.2,30.02,SW,225,0.1,1.2,71,0.00,FEW,,0.13,WeatherDisplay:10.37,2013-06-08 15:52:00,
2013-06-08 11:57:00,75.8,65.3,30.03,SW,221,0.3,2.0,70,0.00,FEW,,0.13,WeatherDisplay:10.37,2013-06-08 15:57:00,
2013-06-08 12:02:00,76.4,65.5,30.03,WSW,242,0.2,1.2,69,0.00,FEW,,0.13,WeatherDisplay:10.37,2013-06-08 16:02:00,
2013-06-08 12:07:00,76.4,61.0,30.03,ENE,75,0.3,1.2,59,0.00,FEW,,0.13,WeatherDisplay:10.37,2013-06-08 16:07:00,
2013-06-08 12:12:00,76.8,63.2,30.03,SSE,163,0.0,0.0,63,0.00,FEW,,0.13,WeatherDisplay:10.37,2013-06-08 16:12:00,
2013-06-08 12:17:00,76.6,62.6,30.03,SSE,159,0.5,1.2,62,0.00,FEW,,0.13,WeatherDisplay:10.37,2013-06-08 16:17:00,
2013-06-08 12:22:00,77.0,63.0,30.03,SSW,203,0.0,0.0,62,0.00,FEW,,0.13,WeatherDisplay:10.37,2013-06-08 16:22:00,
2013-06-08 12:27:00,78.0,62.0,30.03,South,187,0.5,3.5,58,0.00,FEW,,0.13,WeatherDisplay:10.37,2013-06-08 16:27:00,
2013-06-08 12:32:00,78.1,63.1,30.02,NNE,33,0.3,1.2,60,0.00,FEW,,0.13,WeatherDisplay:10.37,2013-06-08 16:32:00,
2013-06-08 12:37:00,77.7,61.7,30.02,WSW,240,0.2,1.0,58,0.00,FEW,,0.13,WeatherDisplay:10.37,2013-06-08 16:37:00,
2013-06-08 12:42:00,78.0,62.5,30.02,SE,139,0.0,1.2,59,0.00,FEW,,0.13,WeatherDisplay:10.37,2013-06-08 16:42:00,
2013-06-08 12:47:00,79.0,65.8,30.02,SE,131,0.0,1.2,64,0.00,FEW,,0.13,WeatherDisplay:10.37,2013-06-08 16:47:00,
2013-06-08 12:52:00,80.2,65.1,30.02,SSW,205,0.4,2.0,60,0.00,FEW,,0.13,WeatherDisplay:10.37,2013-06-08 16:52:00,
2013-06-08 12:57:00,80.5,63.9,30.02,SW,218,0.8,2.3,57,0.00,FEW,,0.13,WeatherDisplay:10.37,2013-06-08 16:57:00,
2013-06-08 13:02:00,80.5,61.8,30.02,ESE,106,1.9,2.3,53,0.00,FEW,,0.13,WeatherDisplay:10.37,2013-06-08 17:02:00,
2013-06-08 13:07:00,79.5,61.9,30.02,ENE,63,0.6,1.2,55,0.00,FEW,,0.13,WeatherDisplay:10.37,2013-06-08 17:07:00,
2013-06-08 13:12:00,79.6,61.5,30.01,SW,229,0.1,1.2,54,0.00,FEW,,0.13,WeatherDisplay:10.37,2013-06-08 17:12:00,
2013-06-08 13:17:00,80.6,65.4,30.01,WSW,253,0.1,1.2,60,0.00,FEW,,0.13,WeatherDisplay:10.37,2013-06-08 17:17:00,
2013-06-08 13:22:00,81.1,63.9,30.01,WSW,252,0.4,1.2,56,0.00,FEW,,0.13,WeatherDisplay:10.37,2013-06-08 17:22:00,
2013-06-08 13:27:00,80.0,61.9,30.01,SE,135,0.3,1.2,54,0.00,FEW,,0.13,WeatherDisplay:10.37,2013-06-08 17:27:00,
2013-06-08 13:32:00,81.3,64.1,30.01,SE,141,0.0,0.0,56,0.00,FEW,,0.13,WeatherDisplay:10.37,2013-06-08 17:32:00,
2013-06-08 13:37:00,81.5,61.1,30.01,WSW,246,1.7,2.3,50,0.00,FEW,,0.13,WeatherDisplay:10.37,2013-06-08 17:37:00,
2013-06-08 13:42:00,81.4,62.1,30.01,ESE,107,0.0,0.0,52,0.00,FEW,,0.13,WeatherDisplay:10.37,2013-06-08 17:42:00,
2013-06-08 13:47:00,81.0,63.3,30.01,ENE,77,0.6,1.2,55,0.00,FEW,,0.13,WeatherDisplay:10.37,2013-06-08 17:47:00,
2013-06-08 13:52:00,80.8,62.6,30.01,West,273,2.6,6.0,54,0.00,FEW,,0.13,WeatherDisplay:10.37,2013-06-08 17:52:00,
2013-06-08 13:57:00,80.5,61.8,30.01,West,277,0.3,2.3,53,0.00,FEW,,0.13,WeatherDisplay:10.37,2013-06-08 17:57:00,
2013-06-08 14:02:00,81.6,63.3,30.01,West,261,0.8,2.3,54,0.00,FEW,,0.13,WeatherDisplay:10.37,2013-06-08 18:02:00,
2013-06-08 14:07:00,82.0,62.1,30.01,ESE,102,0.2,1.2,51,0.00,FEW,,0.13,WeatherDisplay:10.37,2013-06-08 18:07:00,
2013-06-08 14:12:00,82.8,63.4,30.01,SW,218,2.3,4.0,52,0.00,FEW,,0.13,WeatherDisplay:10.37,2013-06-08 18:12:00,
2013-06-08 14:17:00,82.9,61.8,30.01,WSW,252,0.5,2.0,49,0.00,FEW,,0.13,WeatherDisplay:10.37,2013-06-08 18:17:00,
2013-06-08 14:22:00,83.4,61.1,30.01,SW,218,0.1,1.2,47,0.00,FEW,,0.13,WeatherDisplay:10.37,2013-06-08 18:22:00,
2013-06-08 14:27:00,82.6,64.8,30.01,ESE,107,1.1,2.3,55,0.00,FEW,,0.13,WeatherDisplay:10.37,2013-06-08 18:27:00,
2013-06-08 14:32:00,83.2,64.3,30.01,West,274,0.7,1.2,53,0.00,FEW,,0.13,WeatherDisplay:10.37,2013-06-08 18:32:00,
2013-06-08 14:37:00,83.2,65.4,30.01,ESE,108,0.2,1.0,55,0.00,FEW,,0.13,WeatherDisplay:10.37,2013-06-08 18:37:00,
2013-06-08 14:42:00,83.7,65.3,30.01,NNE,29,0.0,1.2,54,0.00,FEW,,0.13,WeatherDisplay:10.37,2013-06-08 18:42:00,
2013-06-08 14:47:00,85.0,66.5,30.01,NW,323,0.1,1.2,54,0.00,FEW,,0.13,WeatherDisplay:10.37,2013-06-08 18:47:00,
2013-06-08 14:52:00,85.9,66.2,30.01,West,266,0.7,2.3,52,0.00,FEW,,0.13,WeatherDisplay:10.37,2013-06-08 18:52:00,
2013-06-08 14:57:00,85.8,63.8,30.01,ESE,111,0.9,1.2,48,0.00,FEW,,0.13,WeatherDisplay:10.37,2013-06-08 18:57:00,
2013-06-08 15:02:00,85.5,63.6,30.01,West,271,0.3,1.2,48,0.00,SCT,,0.13,WeatherDisplay:10.37,2013-06-08 19:02:00,
2013-06-08 15:07:00,84.1,62.3,30.00,WSW,256,0.8,2.3,48,0.00,SCT,,0.13,WeatherDisplay:10.37,2013-06-08 19:07:00,
2013-06-08 15:12:00,83.6,61.2,30.01,WSW,240,1.1,2.3,47,0.00,SCT,,0.13,WeatherDisplay:10.37,2013-06-08 19:12:00,
2013-06-08 15:17:00,83.9,63.8,30.01,NNE,32,0.2,1.2,51,0.00,SCT,,0.13,WeatherDisplay:10.37,2013-06-08 19:17:00,
2013-06-08 15:22:00,85.7,67.1,30.01,NE,44,0.0,0.0,54,0.00,SCT,,0.13,WeatherDisplay:10.37,2013-06-08 19:22:00,
2013-06-08 15:27:00,86.9,67.7,30.00,WSW,238,1.0,2.3,53,0.00,SCT,,0.13,WeatherDisplay:10.37,2013-06-08 19:27:00,
2013-06-08 15:32:00,86.5,62.0,30.00,NNW,335,0.4,1.2,44,0.00,SCT,,0.13,WeatherDisplay:10.37,2013-06-08 19:32:00,
2013-06-08 15:37:00,86.3,66.0,30.00,WSW,240,0.1,1.2,51,0.00,SCT,,0.13,WeatherDisplay:10.37,2013-06-08 19:37:00,
2013-06-08 15:42:00,86.7,61.5,30.00,SW,224,0.2,1.2,43,0.00,SCT,,0.13,WeatherDisplay:10.37,2013-06-08 19:42:00,
2013-06-08 15:47:00,87.1,62.5,30.00,WNW,285,2.1,3.5,44,0.00,SCT,,0.13,WeatherDisplay:10.37,2013-06-08 19:47:00,
2013-06-08 15:52:00,85.3,63.4,30.00,ESE,118,0.8,1.2,48,0.00,SCT,,0.13,WeatherDisplay:10.37,2013-06-08 19:52:00,
2013-06-08 15:57:00,85.3,66.8,30.00,SSW,197,1.3,3.5,54,0.00,SCT,,0.13,WeatherDisplay:10.37,2013-06-08 19:57:00,
2013-06-08 16:02:00,85.4,65.8,30.00,NE,44,1.0,2.3,52,0.00,FEW,,0.13,WeatherDisplay:10.37,2013-06-08 20:02:00,
2013-06-08 16:07:00,85.0,64.3,30.00,WSW,246,0.7,2.3,50,0.00,FEW,,0.13,WeatherDisplay:10.37,2013-06-08 20:07:00,
2013-06-08 16:12:00,84.9,65.3,30.00,ENE,75,0.3,1.2,52,0.00,FEW,,0.13,WeatherDisplay:10.37,2013-06-08 20:12:00,
2013-06-08 16:17:00,84.5,63.8,30.00,WSW,249,0.2,1.2,50,0.00,FEW,,0.13,WeatherDisplay:10.37,2013-06-08 20:17:00,
2013-06-08 16:22:00,83.9,62.7,30.00,South,189,0.4,2.3,49,0.00,FEW,,0.13,WeatherDisplay:10.37,2013-06-08 20:22:00,
2013-06-08 16:27:00,84.3,64.8,30.00,SE,138,0.3,1.2,52,0.00,FEW,,0.13,WeatherDisplay:10.37,2013-06-08 20:27:00,
2013-06-08 16:32:00,84.9,64.8,30.00,SE,139,0.0,0.0,51,0.00,FEW,,0.13,WeatherDisplay:10.37,2013-06-08 20:32:00,
2013-06-08 16:37:00,85.3,63.4,30.00,WNW,288,2.1,3.5,48,0.00,FEW,,0.13,WeatherDisplay:10.37,2013-06-08 20:37:00,
2013-06-08 16:42:00,85.7,66.6,30.00,West,266,0.0,1.2,53,0.00,FEW,,0.13,WeatherDisplay:10.37,2013-06-08 20:42:00,
2013-06-08 16:47:00,86.4,66.1,30.00,SW,235,0.0,0.0,51,0.00,FEW,,0.13,WeatherDisplay:10.37,2013-06-08 20:47:00,
2013-06-08 16:52:00,86.6,65.7,30.00,ENE,71,0.0,0.0,50,0.00,FEW,,0.13,WeatherDisplay:10.37,2013-06-08 20:52:00,
2013-06-08 16:57:00,86.0,64.6,30.01,NE,34,0.0,0.0,49,0.00,FEW,,0.13,WeatherDisplay:10.37,2013-06-08 20:57:00,
2013-06-08 17:02:00,85.8,63.8,30.01,South,189,0.6,2.3,48,0.00,FEW,,0.13,WeatherDisplay:10.37,2013-06-08 21:02:00,
2013-06-08 17:07:00,86.1,64.1,30.01,SSE,156,0.0,0.0,48,0.00,SCT,,0.13,WeatherDisplay:10.37,2013-06-08 21:07:00,
2013-06-08 17:12:00,86.1,64.7,30.01,ESE,112,0.1,0.0,49,0.00,SCT,,0.13,WeatherDisplay:10.37,2013-06-08 21:12:00,
2013-06-08 17:17:00,85.2,64.5,30.01,NW,318,1.0,3.5,50,0.00,SCT,,0.13,WeatherDisplay:10.37,2013-06-08 21:17:00,
2013-06-08 17:22:00,85.0,66.5,30.01,WSW,248,0.3,1.2,54,0.00,SCT,,0.13,WeatherDisplay:10.37,2013-06-08 21:22:00,
2013-06-08 17:27:00,85.4,66.9,30.02,West,274,0.7,3.5,54,0.00,SCT,,0.13,WeatherDisplay:10.37,2013-06-08 21:27:00,
2013-06-08 17:32:00,84.6,65.6,30.02,WNW,285,1.5,3.5,53,0.00,SCT,,0.13,WeatherDisplay:10.37,2013-06-08 21:32:00,
2013-06-08 17:37:00,83.0,65.2,30.02,NW,321,1.7,3.5,55,0.00,SCT,,0.13,WeatherDisplay:10.37,2013-06-08 21:37:00,
2013-06-08 17:42:00,82.5,66.2,30.02,West,273,0.9,3.0,58,0.00,SCT,,0.13,WeatherDisplay:10.37,2013-06-08 21:42:00,
2013-06-08 17:47:00,81.8,66.6,30.02,ESE,108,0.0,0.0,60,0.00,SCT,,0.13,WeatherDisplay:10.37,2013-06-08 21:47:00,
2013-06-08 17:52:00,81.1,66.8,30.02,NW,314,0.4,2.3,62,0.00,SCT,,0.13,WeatherDisplay:10.37,2013-06-08 21:52:00,
2013-06-08 17:57:00,80.5,66.7,30.02,WNW,298,0.0,1.2,63,0.00,SCT,,0.13,WeatherDisplay:10.37,2013-06-08 21:57:00,
2013-06-08 18:02:00,80.0,66.3,30.03,WSW,240,0.9,2.3,63,0.00,SCT,,0.13,WeatherDisplay:10.37,2013-06-08 22:02:00,
2013-06-08 18:07:00,79.7,67.3,30.03,WSW,250,0.0,0.0,66,0.00,SCT,,0.13,WeatherDisplay:10.37,2013-06-08 22:07:00,
2013-06-08 18:12:00,79.6,67.2,30.03,WSW,250,0.0,0.0,66,0.00,SCT,,0.13,WeatherDisplay:10.37,2013-06-08 22:12:00,
2013-06-08 18:17:00,79.4,67.0,30.03,North,357,0.0,0.0,66,0.00,SCT,,0.13,WeatherDisplay:10.37,2013-06-08 22:17:00,
2013-06-08 18:22:00,79.0,67.1,30.04,NW,319,0.0,0.0,67,0.00,SCT,,0.13,WeatherDisplay:10.37,2013-06-08 22:22:00,
2013-06-08 18:27:00,78.7,66.8,30.03,NW,320,0.0,0.0,67,0.00,SCT,,0.13,WeatherDisplay:10.37,2013-06-08 22:27:00,
2013-06-08 18:32:00,78.3,66.9,30.04,SE,136,0.0,1.2,68,0.00,SCT,,0.13,WeatherDisplay:10.37,2013-06-08 22:32:00,
2013-06-08 18:37:00,77.9,66.9,30.04,SE,134,0.0,0.0,69,0.00,SCT,,0.13,WeatherDisplay:10.37,2013-06-08 22:37:00,
2013-06-08 18:42:00,77.8,67.6,30.04,SE,146,0.0,0.0,71,0.00,SCT,,0.13,WeatherDisplay:10.37,2013-06-08 22:42:00,
2013-06-08 18:47:00,77.8,67.2,30.04,SSE,147,0.0,0.0,70,0.00,SCT,,0.13,WeatherDisplay:10.37,2013-06-08 22:47:00,
2013-06-08 18:52:00,77.5,67.4,30.04,SE,146,0.0,0.0,71,0.00,SCT,,0.13,WeatherDisplay:10.37,2013-06-08 22:52:00,
2013-06-08 18:57:00,76.7,66.6,30.04,ESE,112,0.0,0.0,71,0.00,SCT,,0.13,WeatherDisplay:10.37,2013-06-08 22:57:00,
2013-06-08 19:02:00,76.2,66.5,30.05,ESE,112,0.0,0.0,72,0.00,BKN,,0.13,WeatherDisplay:10.37,2013-06-08 23:02:00,
2013-06-08 19:07:00,75.9,66.6,30.04,North,9,0.0,2.3,73,0.00,BKN,,0.13,WeatherDisplay:10.37,2013-06-08 23:07:00,
2013-06-08 19:12:00,75.7,66.4,30.04,North,9,0.0,1.2,73,0.00,BKN,,0.13,WeatherDisplay:10.37,2013-06-08 23:12:00,
2013-06-08 19:17:00,75.7,66.8,30.05,North,9,0.0,0.0,74,0.00,BKN,,0.13,WeatherDisplay:10.37,2013-06-08 23:17:00,
2013-06-08 19:22:00,75.9,67.0,30.05,North,9,0.0,0.0,74,0.00,BKN,,0.13,WeatherDisplay:10.37,2013-06-08 23:22:00,
2013-06-08 19:27:00,75.9,66.6,30.05,North,8,0.1,0.0,73,0.00,BKN,,0.13,WeatherDisplay:10.37,2013-06-08 23:27:00,
2013-06-08 19:32:00,75.6,67.1,30.05,NE,56,0.0,1.2,75,0.00,BKN,,0.13,WeatherDisplay:10.37,2013-06-08 23:32:00,
2013-06-08 19:37:00,75.5,67.0,30.05,ENE,57,0.0,1.2,75,0.00,BKN,,0.13,WeatherDisplay:10.37,2013-06-08 23:37:00,
2013-06-08 19:42:00,75.4,66.9,30.06,NE,56,0.0,0.0,75,0.00,BKN,,0.13,WeatherDisplay:10.37,2013-06-08 23:42:00,
2013-06-08 19:47:00,75.1,67.0,30.06,ENE,57,0.0,0.0,76,0.00,BKN,,0.13,WeatherDisplay:10.37,2013-06-08 23:47:00,
2013-06-08 19:52:00,74.9,67.2,30.06,NNE,31,0.4,0.0,77,0.00,BKN,,0.13,WeatherDisplay:10.37,2013-06-08 23:52:00,
2013-06-08 19:57:00,74.5,66.8,30.06,SE,127,0.0,1.2,77,0.00,BKN,,0.13,WeatherDisplay:10.37,2013-06-08 23:57:00,
2013-06-08 20:02:00,74.3,67.4,30.07,SE,127,0.0,0.0,79,0.00,BKN,,0.13,WeatherDisplay:10.37,2013-06-09 00:02:00,
2013-06-08 20:07:00,74.1,66.8,30.07,SE,127,0.0,0.0,78,0.00,BKN,,0.13,WeatherDisplay:10.37,2013-06-09 00:07:00,
2013-06-08 20:12:00,73.9,67.3,30.07,SE,127,0.0,0.0,80,0.00,BKN,,0.13,WeatherDisplay:10.37,2013-06-09 00:12:00,
2013-06-08 20:17:00,73.7,66.8,30.07,SE,127,0.0,0.0,79,0.00,BKN,,0.13,WeatherDisplay:10.37,2013-06-09 00:17:00,
2013-06-08 20:22:00,73.5,66.9,30.07,SE,126,0.0,0.0,80,0.00,BKN,,0.13,WeatherDisplay:10.37,2013-06-09 00:22:00,
2013-06-08 20:27:00,73.3,66.8,30.07,WSW,245,0.0,0.0,80,0.00,BKN,,0.13,WeatherDisplay:10.37,2013-06-09 00:27:00,
2013-06-08 20:32:00,73.2,66.7,30.07,WSW,245,0.0,0.0,80,0.00,BKN,,0.13,WeatherDisplay:10.37,2013-06-09 00:32:00,
2013-06-08 20:37:00,73.0,66.5,30.07,WSW,245,0.0,0.0,80,0.00,BKN,,0.13,WeatherDisplay:10.37,2013-06-09 00:37:00,
2013-06-08 20:42:00,72.8,66.6,30.07,WSW,245,0.0,0.0,81,0.00,BKN,,0.13,WeatherDisplay:10.37,2013-06-09 00:42:00,
2013-06-08 20:47:00,72.6,66.4,30.08,WSW,241,0.0,1.2,81,0.00,BKN,,0.13,WeatherDisplay:10.37,2013-06-09 00:47:00,
2013-06-08 20:52:00,72.3,66.1,30.08,WSW,240,0.0,0.0,81,0.00,BKN,,0.13,WeatherDisplay:10.37,2013-06-09 00:52:00,
2013-06-08 20:57:00,72.1,65.9,30.08,WSW,241,0.0,0.0,81,0.00,BKN,,0.13,WeatherDisplay:10.37,2013-06-09 00:57:00,
2013-06-08 21:02:00,72.1,65.9,30.08,WSW,240,0.0,0.0,81,0.00,BKN,,0.13,WeatherDisplay:10.37,2013-06-09 01:02:00,
2013-06-08 21:07:00,72.1,65.9,30.08,WSW,240,0.0,0.0,81,0.00,BKN,,0.13,WeatherDisplay:10.37,2013-06-09 01:07:00,
2013-06-08 21:12:00,72.1,65.9,30.09,WSW,240,0.0,0.0,81,0.00,BKN,,0.13,WeatherDisplay:10.37,2013-06-09 01:12:00,
2013-06-08 21:17:00,72.1,65.9,30.09,WSW,241,0.0,0.0,81,0.00,SCT,,0.13,WeatherDisplay:10.37,2013-06-09 01:17:00,
2013-06-08 21:22:00,72.1,65.9,30.09,WSW,242,0.0,0.0,81,0.00,SCT,,0.13,WeatherDisplay:10.37,2013-06-09 01:22:00,
2013-06-08 21:27:00,72.0,65.8,30.09,WSW,242,0.0,0.0,81,0.00,SCT,,0.13,WeatherDisplay:10.37,2013-06-09 01:27:00,
2013-06-08 21:32:00,71.9,66.1,30.10,WSW,242,0.0,0.0,82,0.00,SCT,,0.13,WeatherDisplay:10.37,2013-06-09 01:32:00,
2013-06-08 21:37:00,71.8,66.0,30.10,WSW,241,0.0,0.0,82,0.00,SCT,,0.13,WeatherDisplay:10.37,2013-06-09 01:37:00,
2013-06-08 21:42:00,71.7,65.9,30.10,WSW,241,0.0,0.0,82,0.00,SCT,,0.13,WeatherDisplay:10.37,2013-06-09 01:42:00,
2013-06-08 21:47:00,71.5,65.7,30.11,WSW,242,0.0,0.0,82,0.00,SCT,,0.13,WeatherDisplay:10.37,2013-06-09 01:47:00,
2013-06-08 21:52:00,71.3,65.5,30.11,WSW,242,0.0,0.0,82,0.00,SCT,,0.13,WeatherDisplay:10.37,2013-06-09 01:52:00,
2013-06-08 21:57:00,71.2,65.4,30.11,WSW,241,0.0,0.0,82,0.00,SCT,,0.13,WeatherDisplay:10.37,2013-06-09 01:57:00,
2013-06-08 22:02:00,71.2,65.4,30.11,WSW,241,0.0,0.0,82,0.00,SCT,,0.13,WeatherDisplay:10.37,2013-06-09 02:02:00,
2013-06-08 22:07:00,71.2,65.4,30.11,WSW,242,0.0,0.0,82,0.00,SCT,,0.13,WeatherDisplay:10.37,2013-06-09 02:07:00,
2013-06-08 22:12:00,71.1,65.7,30.12,WSW,242,0.0,0.0,83,0.00,SCT,,0.13,WeatherDisplay:10.37,2013-06-09 02:12:00,
2013-06-08 22:17:00,70.9,65.8,30.12,WSW,241,0.0,0.0,84,0.00,CLR,,0.13,WeatherDisplay:10.37,2013-06-09 02:17:00,
2013-06-08 22:22:00,70.6,65.5,30.12,WSW,243,0.1,0.0,84,0.00,CLR,,0.13,WeatherDisplay:10.37,2013-06-09 02:22:00,
2013-06-08 22:27:00,70.2,65.8,30.12,WSW,243,0.0,0.0,86,0.00,CLR,,0.13,WeatherDisplay:10.37,2013-06-09 02:27:00,
2013-06-08 22:32:00,69.8,65.8,30.12,WSW,243,0.0,0.0,87,0.00,CLR,,0.13,WeatherDisplay:10.37,2013-06-09 02:32:00,
2013-06-08 22:37:00,69.6,65.6,30.13,WSW,243,0.0,0.0,87,0.00,CLR,,0.13,WeatherDisplay:10.37,2013-06-09 02:37:00,
2013-06-08 22:42:00,69.3,65.6,30.13,WSW,243,0.0,0.0,88,0.00,CLR,,0.13,WeatherDisplay:10.37,2013-06-09 02:42:00,
2013-06-08 22:47:00,69.1,65.4,30.14,WSW,243,0.0,0.0,88,0.00,CLR,,0.13,WeatherDisplay:10.37,2013-06-09 02:47:00,
2013-06-08 22:52:00,69.0,65.6,30.13,WSW,243,0.0,0.0,89,0.00,CLR,,0.13,WeatherDisplay:10.37,2013-06-09 02:52:00,
2013-06-08 22:58:00,68.8,65.4,30.13,NW,307,0.0,1.2,89,0.00,CLR,,0.13,WeatherDisplay:10.37,2013-06-09 02:58:00,
2013-06-08 23:03:00,68.7,65.6,30.13,NW,307,0.0,0.0,90,0.00,FEW,,0.13,WeatherDisplay:10.37,2013-06-09 03:03:00,
2013-06-08 23:08:00,68.7,65.3,30.13,NW,319,0.2,1.2,89,0.00,FEW,,0.13,WeatherDisplay:10.37,2013-06-09 03:08:00,
2013-06-08 23:13:00,68.8,65.4,30.13,NW,318,0.0,0.0,89,0.00,FEW,,0.13,WeatherDisplay:10.37,2013-06-09 03:13:00,
2013-06-08 23:18:00,68.6,65.2,30.13,NW,318,0.0,0.0,89,0.00,FEW,,0.13,WeatherDisplay:10.37,2013-06-09 03:18:00,
2013-06-08 23:23:00,68.3,65.3,30.13,NW,318,0.0,0.0,90,0.00,FEW,,0.13,WeatherDisplay:10.37,2013-06-09 03:23:00,
2013-06-08 23:28:00,68.1,65.1,30.13,NW,318,0.0,0.0,90,0.00,FEW,,0.13,WeatherDisplay:10.37,2013-06-09 03:28:00,
2013-06-08 23:33:00,67.9,65.2,30.13,NW,318,0.0,0.0,91,0.00,FEW,,0.13,WeatherDisplay:10.37,2013-06-09 03:33:00,
2013-06-08 23:38:00,67.6,64.9,30.13,NNW,337,0.0,0.0,91,0.00,FEW,,0.13,WeatherDisplay:10.37,2013-06-09 03:38:00,
2013-06-08 23:43:00,67.4,65.0,30.14,NNW,335,0.0,0.0,92,0.00,FEW,,0.13,WeatherDisplay:10.37,2013-06-09 03:43:00,
2013-06-08 23:48:00,67.2,64.8,30.14,NNW,335,0.0,0.0,92,0.00,FEW,,0.13,WeatherDisplay:10.37,2013-06-09 03:48:00,
2013-06-08 23:53:00,67.2,64.8,30.13,NW,323,0.0,0.0,92,0.00,FEW,,0.13,WeatherDisplay:10.37,2013-06-09 03:53:00,
2013-06-08 23:58:00,67.1,64.7,30.14,NW,323,0.0,0.0,92,0.00,FEW,,0.13,WeatherDisplay:10.37,2013-06-09 03:58:00,